Time;durP1;ratioP1;P1;durP2;ratioP2;P2;SDS_P1;SDS_P2;PMS_P1;PMS_P2;Temp;Humidity;BMP_temperature;BMP_pressure;BME280_temperature;BME280_humidity;BME280_pressure;Samples;Min_cycle;Max_cycle;Signal;HPM_P1;HPM_P2
2024/03/12 00:01:19;;;;;;;0.30;0.30;;;;;;;7.19;100.00;98705.78;5050247;28;20490;-57
2024/03/12 00:03:46;;;;;;;0.30;0.30;;;;;;;7.19;100.00;98707.59;5055167;28;20036;-57
2024/03/12 00:06:13;;;;;;;0.40;0.40;;;;;;;7.24;100.00;98708.56;5047232;28;20052;-57
2024/03/12 00:08:42;;;;;;;0.40;0.40;;;;;;;7.18;100.00;98709.47;5059353;28;20099;-56
2024/03/12 00:11:10;;;;;;;0.30;0.30;;;;;;;7.10;100.00;98713.31;5059325;28;20051;-56
2024/03/12 00:13:37;;;;;;;0.30;0.30;;;;;;;7.22;100.00;98715.16;5059609;28;20040;-57
2024/03/12 00:16:06;;;;;;;0.35;0.35;;;;;;;7.13;100.00;98718.16;5053891;28;20095;-57
2024/03/12 00:18:33;;;;;;;0.32;0.32;;;;;;;7.13;100.00;98720.81;5057971;28;20072;-57
2024/03/12 00:21:02;;;;;;;0.30;0.30;;;;;;;7.20;100.00;98718.06;5056326;28;20047;-57
2024/03/12 00:23:30;;;;;;;0.30;0.30;;;;;;;7.24;100.00;98729.03;5055879;28;20499;-57
2024/03/12 00:25:57;;;;;;;0.20;0.20;;;;;;;7.28;100.00;98724.88;5054000;28;20041;-56
2024/03/12 00:28:26;;;;;;;0.32;0.32;;;;;;;7.17;100.00;98725.72;5052388;28;20078;-57
2024/03/12 00:30:53;;;;;;;0.20;0.20;;;;;;;7.12;100.00;98735.22;5060660;28;20075;-57
2024/03/12 00:33:21;;;;;;;0.30;0.30;;;;;;;7.13;100.00;98736.00;5053052;28;20600;-59
2024/03/12 00:35:48;;;;;;;0.40;0.40;;;;;;;7.08;100.00;98743.88;5056689;28;20434;-58
2024/03/12 00:38:17;;;;;;;0.40;0.40;;;;;;;6.98;100.00;98741.00;5055944;28;20128;-57
2024/03/12 00:40:44;;;;;;;0.40;0.40;;;;;;;7.03;100.00;98739.25;5064459;28;20040;-56
2024/03/12 00:43:11;;;;;;;0.40;0.40;;;;;;;6.99;100.00;98748.75;5061070;28;20140;-56
2024/03/12 00:45:41;;;;;;;0.40;0.40;;;;;;;7.06;100.00;98749.47;5062443;28;20067;-57
2024/03/12 00:48:09;;;;;;;0.30;0.30;;;;;;;7.06;100.00;98749.47;5058069;28;20048;-57
2024/03/12 00:50:36;;;;;;;0.40;0.40;;;;;;;7.10;100.00;98753.28;5060187;28;20047;-57
2024/03/12 00:53:03;;;;;;;0.40;0.40;;;;;;;7.11;100.00;98752.25;5053926;28;20273;-57
2024/03/12 00:55:31;;;;;;;0.40;0.40;;;;;;;7.15;100.00;98762.44;5048095;28;20326;-57
2024/03/12 00:57:58;;;;;;;0.30;0.30;;;;;;;7.03;100.00;98755.22;5048360;28;20048;-57
2024/03/12 01:00:28;;;;;;;0.30;0.30;;;;;;;7.07;100.00;98763.59;5055668;28;20049;-57
2024/03/12 01:02:58;;;;;;;0.30;0.30;;;;;;;7.13;100.00;98762.66;5051207;28;20036;-57
2024/03/12 01:05:25;;;;;;;0.33;0.33;;;;;;;7.06;100.00;98764.63;5048724;28;20686;-57
2024/03/12 01:07:58;;;;;;;0.30;0.30;;;;;;;7.04;100.00;98766.69;5055635;28;20308;-56
2024/03/12 01:10:26;;;;;;;0.38;0.38;;;;;;;7.02;100.00;98774.94;5053869;28;20040;-57
2024/03/12 01:12:54;;;;;;;0.40;0.40;;;;;;;6.97;100.00;98771.34;5056575;28;20114;-56
2024/03/12 01:15:23;;;;;;;0.40;0.40;;;;;;;7.18;100.00;98769.97;5059549;28;20072;-57
2024/03/12 01:17:51;;;;;;;0.30;0.30;;;;;;;7.08;100.00;98768.69;5058720;28;20040;-57
2024/03/12 01:20:20;;;;;;;0.30;0.30;;;;;;;7.02;100.00;98769.63;5050529;28;20040;-57
2024/03/12 01:22:47;;;;;;;0.40;0.40;;;;;;;6.96;100.00;98770.53;5048681;28;20052;-57
2024/03/12 01:25:15;;;;;;;0.50;0.50;;;;;;;6.94;100.00;98775.28;5053983;28;20799;-57
2024/03/12 01:27:42;;;;;;;0.40;0.40;;;;;;;7.12;100.00;98774.38;5054444;28;20091;-57
2024/03/12 01:30:14;;;;;;;0.40;0.40;;;;;;;7.00;100.00;98779.69;5049695;28;20052;-57
2024/03/12 01:32:41;;;;;;;0.30;0.30;;;;;;;6.93;100.00;98780.84;5050128;28;20407;-57
2024/03/12 01:35:09;;;;;;;0.30;0.30;;;;;;;6.87;100.00;98779.91;5058874;28;20832;-58
2024/03/12 01:37:41;;;;;;;0.40;0.40;;;;;;;7.02;100.00;98780.28;5053314;28;20036;-57
2024/03/12 01:40:19;;;;;;;0.47;0.47;;;;;;;6.97;100.00;98784.69;5050209;28;20156;-56
2024/03/12 01:42:48;;;;;;;0.40;0.40;;;;;;;6.98;100.00;98783.63;5084573;28;20132;-57
2024/03/12 01:45:16;;;;;;;0.32;0.32;;;;;;;6.93;100.00;98783.50;5054357;28;20511;-56
2024/03/12 01:47:45;;;;;;;0.40;0.40;;;;;;;7.05;100.00;98782.47;5050232;28;20095;-57
2024/03/12 01:50:12;;;;;;;0.30;0.30;;;;;;;7.07;100.00;98784.91;5048472;28;20055;-57
2024/03/12 01:52:43;;;;;;;0.40;0.40;;;;;;;6.99;100.00;98775.41;5057553;28;20094;-57
2024/03/12 01:55:11;;;;;;;0.30;0.30;;;;;;;6.99;100.00;98772.75;5050736;28;20632;-57
2024/03/12 01:57:41;;;;;;;0.32;0.32;;;;;;;6.96;100.00;98781.19;5057892;28;20144;-57
2024/03/12 02:00:13;;;;;;;0.30;0.30;;;;;;;6.94;100.00;98777.13;5052702;28;20058;-56
2024/03/12 02:02:41;;;;;;;0.30;0.30;;;;;;;7.01;100.00;98783.97;5046958;28;20053;-57
2024/03/12 02:05:10;;;;;;;0.30;0.30;;;;;;;6.96;100.00;98781.19;5057639;28;20527;-57
2024/03/12 02:07:45;;;;;;;0.40;0.40;;;;;;;6.86;100.00;98787.09;5053261;28;20594;-56
2024/03/12 02:10:13;;;;;;;0.40;0.40;;;;;;;6.84;100.00;98783.00;5055474;28;20049;-57
2024/03/12 02:12:40;;;;;;;0.30;0.30;;;;;;;6.84;100.00;98791.00;5049016;28;20052;-56
2024/03/12 02:15:08;;;;;;;0.30;0.30;;;;;;;6.81;100.00;98789.59;5049616;28;20099;-58
2024/03/12 02:17:35;;;;;;;0.40;0.40;;;;;;;6.83;100.00;98792.06;5056142;28;20045;-57
2024/03/12 02:20:04;;;;;;;0.38;0.38;;;;;;;6.79;100.00;98796.19;5047940;28;20126;-58
2024/03/12 02:22:31;;;;;;;0.30;0.30;;;;;;;6.83;100.00;98800.03;5053981;28;20060;-57
2024/03/12 02:25:00;;;;;;;0.30;0.30;;;;;;;6.83;100.00;98800.03;5049904;28;20041;-57
2024/03/12 02:27:29;;;;;;;0.30;0.30;;;;;;;6.84;100.00;98794.50;5049092;28;20055;-57
2024/03/12 02:29:59;;;;;;;0.30;0.30;;;;;;;6.84;100.00;98791.84;5053327;28;20044;-57
2024/03/12 02:32:26;;;;;;;0.40;0.40;;;;;;;6.83;100.00;98800.03;5049945;28;20056;-57
2024/03/12 02:34:53;;;;;;;0.30;0.30;;;;;;;6.84;100.00;98799.81;5066403;28;20042;-57
2024/03/12 02:37:23;;;;;;;0.30;0.30;;;;;;;6.90;100.00;98804.22;5067273;28;20497;-58
2024/03/12 02:39:50;;;;;;;0.20;0.20;;;;;;;6.80;100.00;98808.50;5050496;28;20044;-57
2024/03/12 02:42:19;;;;;;;0.28;0.28;;;;;;;6.75;100.00;98800.38;5044514;28;20123;-57
2024/03/12 02:44:46;;;;;;;0.40;0.40;;;;;;;6.78;100.00;98805.25;5054972;28;20048;-57
2024/03/12 02:47:13;;;;;;;0.30;0.30;;;;;;;6.76;100.00;98812.66;5051838;28;20045;-56
2024/03/12 02:49:40;;;;;;;0.40;0.40;;;;;;;6.74;100.00;98804.06;5049074;28;20036;-57
2024/03/12 02:52:10;;;;;;;0.40;0.40;;;;;;;6.74;100.00;98810.22;5062950;28;20106;-57
2024/03/12 02:54:37;;;;;;;0.40;0.40;;;;;;;6.71;100.00;98810.66;5054865;28;20816;-57
2024/03/12 02:57:04;;;;;;;0.40;0.40;;;;;;;6.76;100.00;98820.63;5044374;28;20041;-58
2024/03/12 02:59:32;;;;;;;0.30;0.30;;;;;;;6.77;100.00;98824.94;5049462;28;20068;-58
2024/03/12 03:02:00;;;;;;;0.40;0.40;;;;;;;6.74;100.00;98825.38;5042486;28;20075;-58
2024/03/12 03:04:28;;;;;;;0.30;0.30;;;;;;;6.75;100.00;98821.69;5054714;28;20051;-58
2024/03/12 03:06:57;;;;;;;0.40;0.40;;;;;;;6.80;100.00;98819.16;5051166;28;20040;-57
2024/03/12 03:09:25;;;;;;;0.30;0.30;;;;;;;6.74;100.00;98820.03;5055817;28;20683;-56
2024/03/12 03:11:52;;;;;;;0.40;0.40;;;;;;;6.70;100.00;98825.84;5063139;28;20036;-56
2024/03/12 03:14:19;;;;;;;0.40;0.40;;;;;;;6.73;100.00;98827.22;5052679;28;20110;-57
2024/03/12 03:16:48;;;;;;;0.30;0.30;;;;;;;6.76;100.00;98823.28;5054620;28;20095;-56
2024/03/12 03:19:14;;;;;;;0.40;0.40;;;;;;;6.72;100.00;98827.47;5046924;28;20044;-58
2024/03/12 03:21:41;;;;;;;0.40;0.40;;;;;;;6.78;100.00;98829.22;5053540;28;20049;-56
2024/03/12 03:24:08;;;;;;;0.40;0.40;;;;;;;6.82;100.00;98825.06;5064975;28;20056;-57
2024/03/12 03:26:35;;;;;;;0.30;0.30;;;;;;;6.87;100.00;98830.53;5052529;28;20090;-56
2024/03/12 03:29:03;;;;;;;0.40;0.40;;;;;;;6.77;100.00;98827.59;5051546;28;20051;-56
2024/03/12 03:31:30;;;;;;;0.40;0.40;;;;;;;6.77;100.00;98830.25;5053665;28;20041;-56
2024/03/12 03:34:04;;;;;;;0.40;0.40;;;;;;;6.82;100.00;98827.72;5059027;28;20055;-57
2024/03/12 03:36:32;;;;;;;0.30;0.30;;;;;;;6.75;100.00;98827.81;5050661;28;20135;-56
2024/03/12 03:39:00;;;;;;;0.20;0.20;;;;;;;6.78;100.00;98826.56;5051372;28;20404;-59
2024/03/12 03:41:29;;;;;;;0.30;0.30;;;;;;;6.80;100.00;98832.47;5052146;28;20037;-59
2024/03/12 03:43:56;;;;;;;0.40;0.40;;;;;;;6.82;100.00;98833.88;5057008;28;20048;-54
2024/03/12 03:46:24;;;;;;;0.43;0.43;;;;;;;6.76;100.00;98833.94;5060747;28;20127;-56
2024/03/12 03:48:51;;;;;;;0.47;0.47;;;;;;;6.76;100.00;98841.94;5057811;28;20064;-56
2024/03/12 03:51:19;;;;;;;0.30;0.30;;;;;;;6.77;100.00;98841.72;5047143;28;20041;-57
2024/03/12 03:53:46;;;;;;;0.40;0.40;;;;;;;6.73;100.00;98842.41;5058002;28;20127;-59
2024/03/12 03:56:15;;;;;;;0.40;0.40;;;;;;;6.69;100.00;98845.53;5049808;28;20060;-56
2024/03/12 03:58:43;;;;;;;0.40;0.40;;;;;;;6.70;100.00;98849.81;5051503;28;20071;-58
2024/03/12 04:01:10;;;;;;;0.30;0.30;;;;;;;6.71;100.00;98853.28;5053365;28;20041;-57
2024/03/12 04:03:38;;;;;;;0.30;0.30;;;;;;;6.66;100.00;98856.63;5054470;28;20056;-56
2024/03/12 04:06:07;;;;;;;0.32;0.32;;;;;;;6.64;100.00;98847.22;5054084;28;20118;-56
2024/03/12 04:08:37;;;;;;;0.30;0.30;;;;;;;6.63;100.00;98862.38;5048907;28;20068;-56
2024/03/12 04:11:05;;;;;;;0.30;0.30;;;;;;;6.59;100.00;98863.91;5053255;28;20058;-56
2024/03/12 04:13:33;;;;;;;0.30;0.30;;;;;;;6.52;100.00;98860.50;5052889;28;20041;-59
2024/03/12 04:16:00;;;;;;;0.38;0.38;;;;;;;6.56;100.00;98860.84;5049199;28;20037;-57
2024/03/12 04:18:27;;;;;;;0.40;0.40;;;;;;;6.57;100.00;98860.66;5056615;28;20067;-57
2024/03/12 04:20:55;;;;;;;0.40;0.40;;;;;;;6.57;100.00;98871.28;5064511;28;20131;-57
2024/03/12 04:23:22;;;;;;;0.38;0.38;;;;;;;6.47;100.00;98879.00;5056356;28;20134;-56
2024/03/12 04:25:51;;;;;;;0.40;0.40;;;;;;;6.61;100.00;98877.78;5058828;28;20132;-57
2024/03/12 04:28:19;;;;;;;0.40;0.40;;;;;;;6.48;100.00;98885.94;5050727;28;20063;-57
2024/03/12 04:30:48;;;;;;;0.30;0.30;;;;;;;6.43;100.00;98883.13;5051858;28;20736;-57
2024/03/12 04:33:15;;;;;;;0.30;0.30;;;;;;;6.54;100.00;98892.22;5054195;28;20044;-57
2024/03/12 04:35:44;;;;;;;0.47;0.47;;;;;;;6.49;100.00;98890.25;5059335;28;20048;-57
2024/03/12 04:38:12;;;;;;;0.40;0.40;;;;;;;6.46;100.00;98894.19;5054299;28;20057;-57
2024/03/12 04:40:39;;;;;;;0.40;0.40;;;;;;;6.43;100.00;98894.59;5057090;28;20094;-56
2024/03/12 04:43:08;;;;;;;0.40;0.40;;;;;;;6.57;100.00;98900.59;5061057;28;20125;-57
2024/03/12 04:45:35;;;;;;;0.38;0.38;;;;;;;6.54;100.00;98901.03;5069293;28;20047;-58
2024/03/12 04:48:02;;;;;;;0.35;0.35;;;;;;;6.46;100.00;98901.31;5057454;28;20079;-57
2024/03/12 04:50:30;;;;;;;0.35;0.35;;;;;;;6.50;100.00;98899.84;5045250;28;20551;-59
2024/03/12 04:52:57;;;;;;;0.40;0.40;;;;;;;6.50;100.00;98899.84;5051997;28;20041;-58
2024/03/12 04:55:24;;;;;;;0.40;0.40;;;;;;;6.65;100.00;98904.78;5051284;28;20049;-59
2024/03/12 04:57:52;;;;;;;0.50;0.50;;;;;;;6.62;100.00;98905.25;5052388;28;20057;-59
2024/03/12 05:00:21;;;;;;;0.30;0.30;;;;;;;6.75;100.00;98915.72;5052234;28;20202;-56
2024/03/12 05:02:49;;;;;;;0.30;0.30;;;;;;;6.70;100.00;98927.03;5053560;28;20478;-55
2024/03/12 05:05:18;;;;;;;0.30;0.30;;;;;;;6.66;100.00;98936.53;5057586;28;20090;-56
2024/03/12 05:07:45;;;;;;;0.30;0.30;;;;;;;6.66;100.00;98935.69;5056739;28;20044;-56
2024/03/12 05:10:12;;;;;;;0.30;0.30;;;;;;;6.62;100.00;98937.19;5057187;28;20089;-56
2024/03/12 05:12:39;;;;;;;0.32;0.32;;;;;;;6.61;100.00;98940.88;5053816;28;20041;-56
2024/03/12 05:15:08;;;;;;;0.38;0.38;;;;;;;6.66;100.00;98949.84;5056575;28;20127;-57
2024/03/12 05:17:36;;;;;;;0.30;0.30;;;;;;;6.68;100.00;98953.06;5054973;28;20086;-57
2024/03/12 05:20:06;;;;;;;0.40;0.40;;;;;;;6.75;100.00;98952.19;5057419;28;20036;-56
2024/03/12 05:22:33;;;;;;;0.40;0.40;;;;;;;6.69;100.00;98961.91;5051073;28;20036;-57
2024/03/12 05:25:01;;;;;;;0.30;0.30;;;;;;;6.68;100.00;98966.41;5050142;28;20033;-55
2024/03/12 05:27:35;;;;;;;0.40;0.40;;;;;;;6.78;100.00;98971.19;5047804;28;20085;-59
2024/03/12 05:30:10;;;;;;;0.35;0.35;;;;;;;6.70;100.00;98974.97;5049504;28;20674;-60
2024/03/12 05:32:41;;;;;;;0.40;0.40;;;;;;;6.82;100.00;98975.06;5052513;28;20079;-58
2024/03/12 05:35:17;;;;;;;0.47;0.47;;;;;;;6.83;100.00;98983.84;5059211;28;20045;-57
2024/03/12 05:38:01;;;;;;;0.30;0.30;;;;;;;6.88;100.00;98987.47;5052975;28;20093;-57
2024/03/12 05:40:40;;;;;;;0.30;0.30;;;;;;;6.96;100.00;98986.34;5050142;28;20191;-57
2024/03/12 05:48:38;;;;;;;0.40;0.40;;;;;;;6.87;100.00;98990.38;5046291;28;20075;-57
2024/03/12 05:51:07;;;;;;;0.40;0.40;;;;;;;6.96;100.00;98994.34;5053284;28;20455;-57
2024/03/12 05:53:34;;;;;;;0.40;0.40;;;;;;;6.97;100.00;99000.50;5048626;28;20052;-57
2024/03/12 05:56:03;;;;;;;0.30;0.30;;;;;;;7.02;100.00;99001.44;5051804;28;20041;-57
2024/03/12 05:58:30;;;;;;;0.30;0.30;;;;;;;6.97;100.00;99000.50;5052125;28;20040;-57
2024/03/12 06:00:59;;;;;;;0.20;0.20;;;;;;;6.96;100.00;99004.19;5052280;28;20053;-57
2024/03/12 06:03:26;;;;;;;0.30;0.30;;;;;;;6.75;100.00;99013.47;5054550;28;20041;-57
2024/03/12 06:05:56;;;;;;;0.40;0.40;;;;;;;6.75;100.00;99000.16;5050373;28;20476;-57
2024/03/12 06:08:24;;;;;;;0.40;0.40;;;;;;;6.70;100.00;99003.47;5063735;28;20670;-57
2024/03/12 06:10:51;;;;;;;0.40;0.40;;;;;;;6.75;100.00;99000.16;5061689;28;20053;-57
2024/03/12 06:13:20;;;;;;;0.30;0.30;;;;;;;6.65;100.00;99006.78;5047504;28;20044;-56
2024/03/12 06:15:47;;;;;;;0.30;0.30;;;;;;;6.78;100.00;99007.69;5057941;28;20051;-57
2024/03/12 06:18:14;;;;;;;0.47;0.47;;;;;;;6.78;100.00;99013.81;5049809;28;20101;-57
2024/03/12 06:20:45;;;;;;;0.30;0.30;;;;;;;6.82;100.00;99015.00;5055905;28;20136;-57
2024/03/12 06:23:14;;;;;;;0.40;0.40;;;;;;;6.84;100.00;99018.28;5050899;28;20071;-58
2024/03/12 06:25:41;;;;;;;0.40;0.40;;;;;;;6.94;100.00;99028.41;5044963;28;20044;-58
2024/03/12 06:28:11;;;;;;;0.30;0.30;;;;;;;7.09;100.00;99026.16;5044836;28;20487;-57
2024/03/12 06:30:38;;;;;;;0.30;0.30;;;;;;;7.20;100.00;99037.91;5047280;28;20128;-56
2024/03/12 06:33:06;;;;;;;0.30;0.30;;;;;;;7.35;100.00;99040.16;5045161;28;20044;-58
2024/03/12 06:35:34;;;;;;;0.40;0.40;;;;;;;7.30;100.00;99043.50;5045119;28;20044;-58
2024/03/12 06:38:01;;;;;;;0.30;0.30;;;;;;;7.24;100.00;99049.75;5050763;28;20445;-58
2024/03/12 06:40:29;;;;;;;0.30;0.30;;;;;;;7.30;100.00;99048.03;5053080;28;20067;-57
2024/03/12 06:42:59;;;;;;;0.28;0.28;;;;;;;7.28;100.00;99050.91;5053988;28;20047;-58
2024/03/12 06:45:29;;;;;;;0.30;0.30;;;;;;;7.31;100.00;99057.66;5056123;28;20503;-58
2024/03/12 06:47:56;;;;;;;0.30;0.30;;;;;;;7.24;100.00;99056.91;5048062;28;20048;-55
2024/03/12 06:50:26;;;;;;;0.30;0.30;;;;;;;7.35;100.00;99059.66;5051216;28;20049;-58
2024/03/12 06:52:53;;;;;;;0.30;0.30;;;;;;;7.28;100.00;99068.78;5051595;28;20045;-57
2024/03/12 06:55:23;;;;;;;0.30;0.30;;;;;;;7.32;100.00;99076.09;5049763;28;20047;-58
2024/03/12 06:57:59;;;;;;;0.20;0.20;;;;;;;7.42;100.00;99086.22;5054023;28;20053;-56
2024/03/12 07:00:32;;;;;;;0.30;0.30;;;;;;;7.35;100.00;99085.50;5042798;28;20049;-58
2024/03/12 07:02:59;;;;;;;0.35;0.35;;;;;;;7.30;100.00;99091.50;5050882;28;20048;-58
2024/03/12 07:05:29;;;;;;;0.30;0.30;;;;;;;7.41;100.00;99089.09;5051448;28;20064;-56
2024/03/12 07:07:56;;;;;;;0.30;0.30;;;;;;;7.43;100.00;99095.84;5050390;28;20044;-57
2024/03/12 07:10:25;;;;;;;0.30;0.30;;;;;;;7.34;100.00;99106.03;5057125;28;20144;-58
2024/03/12 07:12:53;;;;;;;0.20;0.20;;;;;;;7.43;100.00;99095.84;5064295;28;20048;-57
2024/03/12 07:15:21;;;;;;;0.20;0.20;;;;;;;7.44;100.00;99097.50;5060861;28;20033;-56
2024/03/12 07:17:48;;;;;;;0.38;0.38;;;;;;;7.45;100.00;99103.63;5053301;28;20131;-58
2024/03/12 07:20:16;;;;;;;0.40;0.40;;;;;;;7.36;100.00;99108.44;5045080;28;20052;-58
2024/03/12 07:22:43;;;;;;;0.20;0.20;;;;;;;7.45;100.00;99112.44;5058973;28;20060;-58
2024/03/12 07:25:11;;;;;;;0.30;0.30;;;;;;;7.51;100.00;99108.88;5052956;28;20552;-58
2024/03/12 07:27:39;;;;;;;0.30;0.30;;;;;;;7.55;100.00;99114.56;5052363;28;20127;-58
2024/03/12 07:30:10;;;;;;;0.28;0.28;;;;;;;7.58;100.00;99119.44;5063758;28;20056;-58
2024/03/12 07:32:38;;;;;;;0.20;0.20;;;;;;;7.49;100.00;99116.28;5044128;28;20072;-58
2024/03/12 07:35:05;;;;;;;0.38;0.38;;;;;;;7.61;100.00;99124.31;5061067;28;20060;-57
2024/03/12 07:37:36;;;;;;;0.30;0.30;;;;;;;7.71;100.00;99123.78;5049838;28;20056;-58
2024/03/12 07:40:04;;;;;;;0.30;0.30;;;;;;;7.74;100.00;99124.16;5046816;28;20461;-58
2024/03/12 07:42:31;;;;;;;0.30;0.30;;;;;;;7.71;100.00;99129.13;5050020;28;20624;-58
2024/03/12 07:44:59;;;;;;;0.30;0.30;;;;;;;7.76;100.00;99129.25;5055515;28;20490;-58
2024/03/12 07:47:30;;;;;;;0.30;0.30;;;;;;;7.90;100.00;99138.72;5059709;28;20041;-58
2024/03/12 07:49:57;;;;;;;0.40;0.40;;;;;;;7.84;100.00;99144.13;5052471;28;20132;-57
2024/03/12 07:52:24;;;;;;;0.20;0.20;;;;;;;7.81;100.00;99148.06;5055873;28;20068;-58
2024/03/12 07:54:52;;;;;;;0.30;0.30;;;;;;;7.86;100.00;99147.41;5052328;28;20590;-59
2024/03/12 07:57:19;;;;;;;0.20;0.20;;;;;;;7.72;100.00;99141.44;5052951;28;20051;-58
2024/03/12 07:59:47;;;;;;;0.30;0.30;;;;;;;7.57;100.00;99150.66;5054770;28;20051;-58
2024/03/12 08:02:19;;;;;;;0.32;0.32;;;;;;;7.59;100.00;99147.78;5054487;28;20068;-58
2024/03/12 08:04:47;;;;;;;0.30;0.30;;;;;;;7.64;100.00;99145.25;5055785;28;20040;-58
2024/03/12 08:07:14;;;;;;;0.40;0.40;;;;;;;7.75;100.00;99157.81;5046836;28;20049;-58
2024/03/12 08:09:42;;;;;;;0.20;0.20;;;;;;;7.79;100.00;99152.84;5061283;28;20053;-59
2024/03/12 08:12:11;;;;;;;0.30;0.30;;;;;;;7.77;100.00;99157.59;5058765;28;20479;-58
2024/03/12 08:14:39;;;;;;;0.30;0.30;;;;;;;7.78;100.00;99156.53;5052166;28;20464;-59
2024/03/12 08:17:07;;;;;;;0.30;0.30;;;;;;;7.69;100.00;99168.56;5047837;28;20514;-58
2024/03/12 08:19:34;;;;;;;0.30;0.30;;;;;;;7.86;100.00;99164.25;5052397;28;20119;-59
2024/03/12 08:22:03;;;;;;;0.22;0.22;;;;;;;8.13;100.00;99169.19;5051799;28;20051;-59
2024/03/12 08:24:30;;;;;;;0.30;0.30;;;;;;;8.14;100.00;99176.19;5053303;28;20048;-58
2024/03/12 08:26:58;;;;;;;0.40;0.40;;;;;;;8.23;100.00;99177.47;5056389;28;20037;-58
2024/03/12 08:29:26;;;;;;;0.30;0.30;;;;;;;8.27;100.00;99172.50;5061231;28;20119;-58
2024/03/12 08:31:54;;;;;;;0.20;0.20;;;;;;;8.46;100.00;99179.38;5055788;28;20044;-58
2024/03/12 08:34:21;;;;;;;0.30;0.30;;;;;;;8.47;100.00;99180.22;5056383;28;20046;-58
2024/03/12 08:36:48;;;;;;;0.30;0.30;;;;;;;8.79;100.00;99184.22;5053546;28;20476;-58
2024/03/12 08:39:17;;;;;;;0.30;0.30;;;;;;;8.92;100.00;99179.69;5050600;28;20048;-58
2024/03/12 08:41:44;;;;;;;0.28;0.28;;;;;;;9.63;96.12;99178.50;5054313;28;20040;-58
2024/03/12 08:44:13;;;;;;;0.30;0.30;;;;;;;9.62;93.13;99182.25;5056407;28;20052;-58
2024/03/12 08:46:41;;;;;;;0.40;0.40;;;;;;;11.47;82.05;99180.72;5064059;28;20520;-58
2024/03/12 08:49:10;;;;;;;0.30;0.30;;;;;;;12.33;76.27;99184.63;5052066;28;20044;-59
2024/03/12 08:51:39;;;;;;;0.30;0.30;;;;;;;13.30;70.66;99190.75;5055675;28;20041;-60
2024/03/12 08:54:06;;;;;;;0.20;0.20;;;;;;;12.73;70.52;99184.97;5053195;28;20048;-59
2024/03/12 08:56:36;;;;;;;0.10;0.10;;;;;;;11.68;73.91;99187.13;5053067;28;20415;-59
2024/03/12 08:59:03;;;;;;;0.20;0.20;;;;;;;11.21;78.16;99191.13;5053031;28;20043;-59
2024/03/12 09:01:31;;;;;;;0.30;0.30;;;;;;;10.94;81.11;99196.38;5056813;28;20140;-59
2024/03/12 09:03:58;;;;;;;0.20;0.20;;;;;;;10.60;82.82;99195.56;5055189;28;20045;-59
2024/03/12 09:06:26;;;;;;;0.20;0.20;;;;;;;10.42;82.50;99185.09;5050543;28;20072;-60
2024/03/12 09:08:53;;;;;;;0.20;0.20;;;;;;;10.50;82.54;99200.75;5053077;28;20094;-58
2024/03/12 09:11:20;;;;;;;0.20;0.20;;;;;;;10.53;82.88;99198.41;5051066;28;20040;-60
2024/03/12 09:13:48;;;;;;;0.20;0.20;;;;;;;10.54;83.26;99204.59;5054308;28;20063;-59
2024/03/12 09:16:16;;;;;;;0.20;0.20;;;;;;;10.27;83.73;99204.34;5061798;28;20719;-58
2024/03/12 09:18:43;;;;;;;0.15;0.15;;;;;;;10.48;80.31;99210.91;5049423;28;20140;-58
2024/03/12 09:21:10;;;;;;;0.20;0.20;;;;;;;10.57;79.31;99210.25;5055110;28;20040;-59
2024/03/12 09:23:38;;;;;;;0.20;0.20;;;;;;;10.67;77.18;99217.66;5051750;28;20118;-57
2024/03/12 09:26:06;;;;;;;0.30;0.30;;;;;;;10.44;77.25;99205.22;5050643;28;20048;-58
2024/03/12 09:28:33;;;;;;;0.20;0.20;;;;;;;10.41;78.94;99215.59;5048757;28;20179;-58
2024/03/12 09:31:04;;;;;;;0.20;0.20;;;;;;;10.35;79.18;99215.50;5045198;28;20044;-58
2024/03/12 09:33:31;;;;;;;0.20;0.20;;;;;;;10.02;82.07;99223.44;5058625;28;20643;-58
2024/03/12 09:35:59;;;;;;;0.10;0.10;;;;;;;9.83;83.09;99220.13;5052088;28;20151;-60
2024/03/12 09:38:27;;;;;;;0.30;0.30;;;;;;;9.69;83.09;99222.28;5054205;28;20055;-58
2024/03/12 09:40:55;;;;;;;0.20;0.20;;;;;;;9.65;82.95;99237.97;5059792;28;20122;-58
2024/03/12 09:43:24;;;;;;;0.20;0.20;;;;;;;9.48;81.27;99231.72;5054557;28;20132;-58
2024/03/12 09:45:51;;;;;;;0.20;0.20;;;;;;;9.49;81.70;99236.03;5057448;28;20548;-58
2024/03/12 09:48:21;;;;;;;0.20;0.20;;;;;;;9.90;81.90;99231.50;5055480;28;20068;-58
2024/03/12 09:50:49;;;;;;;0.22;0.22;;;;;;;10.07;81.74;99235.06;5047898;28;20656;-58
2024/03/12 09:53:17;;;;;;;0.20;0.20;;;;;;;10.03;80.18;99236.56;5052926;28;20521;-58
2024/03/12 09:55:45;;;;;;;0.25;0.25;;;;;;;10.07;79.94;99243.09;5047796;28;20384;-58
2024/03/12 09:58:12;;;;;;;0.20;0.20;;;;;;;10.13;78.97;99241.31;5059310;28;20047;-58
2024/03/12 10:00:39;;;;;;;0.15;0.15;;;;;;;10.18;79.53;99243.28;5053034;28;20052;-58
2024/03/12 10:03:06;;;;;;;0.20;0.20;;;;;;;10.11;78.36;99238.09;5052986;28;20051;-58
2024/03/12 10:05:34;;;;;;;0.20;0.20;;;;;;;9.92;79.12;99240.94;5051200;28;20037;-58
2024/03/12 10:08:12;;;;;;;0.20;0.20;;;;;;;10.09;78.74;99241.00;5044662;28;20045;-58
2024/03/12 10:10:40;;;;;;;0.20;0.20;;;;;;;10.03;79.08;99247.28;5050891;28;20554;-58
2024/03/12 10:13:08;;;;;;;0.30;0.30;;;;;;;9.79;79.83;99246.56;5048785;28;20067;-58
2024/03/12 10:15:36;;;;;;;0.20;0.20;;;;;;;9.83;81.65;99247.69;5051927;28;20049;-58
2024/03/12 10:18:07;;;;;;;0.20;0.20;;;;;;;9.55;81.81;99248.47;5049205;28;20134;-58
2024/03/12 10:20:46;;;;;;;0.30;0.30;;;;;;;9.64;83.44;99246.25;5055095;28;20047;-57
2024/03/12 10:23:16;;;;;;;0.20;0.20;;;;;;;9.60;84.41;99243.22;5055133;28;20139;-58
2024/03/12 10:25:45;;;;;;;0.20;0.20;;;;;;;9.61;84.87;99250.22;5053296;28;20502;-58
2024/03/12 10:28:16;;;;;;;0.30;0.30;;;;;;;9.88;85.21;99255.03;5049436;28;20055;-57
2024/03/12 10:30:45;;;;;;;0.20;0.20;;;;;;;9.94;84.53;99249.53;5046649;28;20043;-58
2024/03/12 10:33:13;;;;;;;0.20;0.20;;;;;;;10.00;83.39;99245.09;5061221;28;20170;-57
2024/03/12 10:35:44;;;;;;;0.20;0.20;;;;;;;10.26;82.76;99242.88;5055764;28;20153;-58
2024/03/12 10:38:13;;;;;;;0.30;0.30;;;;;;;10.28;81.39;99251.53;5053747;28;20106;-58
2024/03/12 10:40:41;;;;;;;0.20;0.20;;;;;;;10.74;80.66;99247.00;5045063;28;20529;-57
2024/03/12 10:43:08;;;;;;;0.20;0.20;;;;;;;10.79;77.83;99250.56;5052105;28;20051;-58
2024/03/12 10:45:38;;;;;;;0.30;0.30;;;;;;;11.02;77.22;99254.94;5054112;28;20095;-57
2024/03/12 10:48:06;;;;;;;0.20;0.20;;;;;;;11.56;74.05;99249.03;5045369;28;20131;-57
2024/03/12 10:50:34;;;;;;;0.22;0.22;;;;;;;11.74;73.52;99249.78;5049090;28;20072;-58
2024/03/12 10:53:01;;;;;;;0.30;0.30;;;;;;;12.70;68.81;99244.66;5048207;28;20048;-58
2024/03/12 10:55:32;;;;;;;0.20;0.20;;;;;;;13.44;63.87;99243.06;5048574;28;20496;-58
2024/03/12 10:58:01;;;;;;;0.20;0.20;;;;;;;12.82;63.80;99243.66;5049217;28;20072;-58
2024/03/12 11:00:28;;;;;;;0.15;0.15;;;;;;;12.05;65.51;99237.53;5047154;28;20583;-57
2024/03/12 11:02:57;;;;;;;0.20;0.20;;;;;;;12.15;64.23;99248.41;5053138;28;20899;-58
2024/03/12 11:05:26;;;;;;;0.20;0.20;;;;;;;11.48;67.56;99246.75;5054777;28;20098;-57
2024/03/12 11:07:54;;;;;;;0.20;0.20;;;;;;;12.97;64.32;99240.28;5047470;28;20041;-58
2024/03/12 11:10:21;;;;;;;0.20;0.20;;;;;;;13.33;62.11;99246.78;5047897;28;20518;-58
2024/03/12 11:12:50;;;;;;;0.13;0.13;;;;;;;13.76;59.28;99248.34;5052714;28;20151;-58
2024/03/12 11:15:17;;;;;;;0.10;0.10;;;;;;;13.72;58.22;99247.22;5055632;28;20032;-58
2024/03/12 11:17:48;;;;;;;0.15;0.15;;;;;;;13.57;58.19;99250.66;5052109;28;20052;-58
2024/03/12 11:20:17;;;;;;;0.10;0.10;;;;;;;13.15;58.69;99248.78;5051331;28;20045;-58
2024/03/12 11:22:44;;;;;;;0.20;0.20;;;;;;;12.68;59.82;99244.09;5052184;28;20041;-58
2024/03/12 11:25:15;;;;;;;0.20;0.20;;;;;;;12.83;59.71;99251.50;5050972;28;20040;-58
2024/03/12 11:27:43;;;;;;;0.20;0.20;;;;;;;13.24;58.58;99253.66;5045596;28;20513;-58
2024/03/12 11:30:14;;;;;;;0.10;0.10;;;;;;;13.10;59.08;99251.44;5044518;28;20049;-57
2024/03/12 11:32:43;;;;;;;0.10;0.10;;;;;;;12.89;59.13;99249.66;5085745;28;20048;-57
2024/03/12 11:35:28;;;;;;;0.10;0.10;;;;;;;12.79;59.65;99249.56;5051520;28;20134;-58
2024/03/12 11:38:05;;;;;;;0.10;0.10;;;;;;;12.85;59.51;99238.56;5045483;28;20072;-58
2024/03/12 11:40:33;;;;;;;0.10;0.10;;;;;;;13.50;57.50;99239.31;5042708;28;20072;-58
2024/03/12 11:43:01;;;;;;;0.20;0.20;;;;;;;13.58;57.79;99236.13;5049466;28;20049;-58
2024/03/12 11:45:42;;;;;;;0.10;0.10;;;;;;;13.15;57.31;99242.56;5052465;28;20057;-58